Time;durP1;ratioP1;P1;durP2;ratioP2;P2;SDS_P1;SDS_P2;PMS_P1;PMS_P2;Temp;Humidity;BMP_temperature;BMP_pressure;BME280_temperature;BME280_humidity;BME280_pressure;Samples;Min_cycle;Max_cycle;Signal;HPM_P1;HPM_P2
2023/01/09 00:01:27;;;;;;;3.75;0.63;;;7.90;99.90;;;;;;5030617;28;20594;-84
2023/01/09 00:03:54;;;;;;;1.90;0.50;;;7.90;99.90;;;;;;5022376;28;20792;-84
2023/01/09 00:06:20;;;;;;;1.92;0.60;;;7.80;99.90;;;;;;5013815;28;20037;-84
2023/01/09 00:08:46;;;;;;;3.17;0.60;;;7.80;99.90;;;;;;5039301;28;20033;-82
2023/01/09 00:11:13;;;;;;;2.05;0.60;;;7.80;99.90;;;;;;5013792;28;20041;-78
2023/01/09 00:13:39;;;;;;;2.05;0.70;;;7.80;99.90;;;;;;5028841;28;20052;-81
2023/01/09 00:16:06;;;;;;;1.08;0.40;;;7.80;99.90;;;;;;5016497;28;20041;-82
2023/01/09 00:18:34;;;;;;;3.33;0.80;;;7.70;99.90;;;;;;5021487;28;20057;-82
2023/01/09 00:21:05;;;;;;;1.30;0.50;;;7.70;99.90;;;;;;5012920;28;20033;-78
2023/01/09 00:23:32;;;;;;;2.22;0.45;;;7.70;99.90;;;;;;5026688;28;20095;-82
2023/01/09 00:26:18;;;;;;;0.93;0.47;;;7.70;99.90;;;;;;5015071;28;20045;-79
2023/01/09 00:28:45;;;;;;;2.05;0.40;;;7.70;99.90;;;;;;5009244;28;20479;-82
2023/01/09 00:31:12;;;;;;;0.75;0.20;;;7.60;99.90;;;;;;5021166;28;20033;-84
2023/01/09 00:33:45;;;;;;;1.70;0.40;;;7.60;99.90;;;;;;5007211;28;20060;-79
2023/01/09 00:36:11;;;;;;;0.88;0.30;;;7.60;99.90;;;;;;5032747;28;20038;-83
2023/01/09 00:38:38;;;;;;;2.88;0.50;;;7.50;99.90;;;;;;5024879;28;20048;-82
2023/01/09 00:41:07;;;;;;;1.83;0.30;;;7.40;99.90;;;;;;5022120;28;20574;-78
2023/01/09 00:43:38;;;;;;;2.00;0.32;;;7.30;99.90;;;;;;5011649;28;20048;-77
2023/01/09 00:46:06;;;;;;;2.63;0.50;;;7.20;99.90;;;;;;5026856;28;20047;-81
2023/01/09 00:48:36;;;;;;;1.67;0.30;;;7.20;99.90;;;;;;5012913;28;20421;-82
2023/01/09 00:51:02;;;;;;;1.50;0.40;;;7.10;99.90;;;;;;5000356;28;20033;-81
2023/01/09 00:53:31;;;;;;;0.82;0.30;;;7.00;99.90;;;;;;5023065;28;20059;-80
2023/01/09 00:56:00;;;;;;;0.70;0.30;;;6.90;99.90;;;;;;5018264;28;20033;-83
2023/01/09 00:58:27;;;;;;;3.22;0.20;;;6.90;99.90;;;;;;5026772;28;20037;-79
2023/01/09 01:00:53;;;;;;;1.05;0.30;;;6.80;99.90;;;;;;5034056;28;20037;-82
2023/01/09 01:03:19;;;;;;;2.97;0.40;;;6.70;99.90;;;;;;5023074;28;20052;-75
2023/01/09 01:08:31;;;;;;;0.60;0.30;;;6.60;99.90;;;;;;5017147;28;20044;-82
2023/01/09 01:10:57;;;;;;;2.78;0.30;;;6.50;99.90;;;;;;5018168;28;20029;-81
2023/01/09 01:13:23;;;;;;;1.80;0.40;;;6.50;99.90;;;;;;5014265;28;20041;-76
2023/01/09 01:15:50;;;;;;;0.40;0.30;;;6.40;99.90;;;;;;5040406;28;20040;-79
2023/01/09 01:18:16;;;;;;;0.90;0.30;;;6.40;99.90;;;;;;5020048;28;20049;-79
2023/01/09 01:20:44;;;;;;;0.77;0.20;;;6.40;99.90;;;;;;5015844;28;20048;-81
2023/01/09 01:23:10;;;;;;;1.75;0.55;;;6.30;99.90;;;;;;4992077;28;20044;-75
2023/01/09 01:25:41;;;;;;;1.02;0.30;;;6.30;99.90;;;;;;5036702;28;20511;-79
2023/01/09 01:28:08;;;;;;;1.98;0.40;;;6.30;99.90;;;;;;4999394;28;20056;-80
2023/01/09 01:30:43;;;;;;;1.52;0.40;;;6.30;99.90;;;;;;5029377;28;20504;-80
2023/01/09 01:33:10;;;;;;;1.20;0.30;;;6.30;99.90;;;;;;5002124;28;20041;-78
2023/01/09 01:35:37;;;;;;;0.80;0.40;;;6.30;99.90;;;;;;5009928;28;20060;-80
2023/01/09 01:38:03;;;;;;;1.35;0.40;;;6.30;99.90;;;;;;5039166;28;20044;-79
2023/01/09 01:40:30;;;;;;;2.05;0.47;;;6.30;99.90;;;;;;5029944;28;20038;-78
2023/01/09 01:42:57;;;;;;;1.05;0.55;;;6.30;99.90;;;;;;5035645;28;20037;-76
2023/01/09 01:45:26;;;;;;;1.05;0.50;;;6.30;99.90;;;;;;5015985;28;20716;-80
2023/01/09 01:47:58;;;;;;;3.15;0.80;;;6.30;99.90;;;;;;5033712;28;20718;-78
2023/01/09 01:50:43;;;;;;;3.38;0.60;;;6.40;99.90;;;;;;5038833;28;20040;-78
2023/01/09 01:53:14;;;;;;;2.00;0.65;;;6.40;99.90;;;;;;5032932;28;20396;-77
2023/01/09 01:55:45;;;;;;;1.52;0.68;;;6.40;99.90;;;;;;5027881;28;20399;-81
2023/01/09 01:58:14;;;;;;;1.10;0.80;;;6.40;99.90;;;;;;5027115;28;20052;-80
2023/01/09 02:00:44;;;;;;;2.70;1.35;;;6.40;99.90;;;;;;5033815;28;20272;-78
2023/01/09 02:03:13;;;;;;;1.83;0.80;;;6.40;99.90;;;;;;5015031;28;20036;-77
2023/01/09 02:05:40;;;;;;;2.50;1.27;;;6.30;99.90;;;;;;5014756;28;20032;-80
2023/01/09 02:08:07;;;;;;;1.50;0.90;;;6.30;99.90;;;;;;5039965;28;20033;-79
2023/01/09 02:10:35;;;;;;;4.35;0.82;;;6.20;99.90;;;;;;5039638;28;20036;-80
2023/01/09 02:13:03;;;;;;;1.30;0.77;;;6.20;99.90;;;;;;5010117;28;20064;-78
2023/01/09 02:15:40;;;;;;;1.90;1.00;;;6.10;99.90;;;;;;5020225;28;20047;-79
2023/01/09 02:18:31;;;;;;;4.50;1.27;;;6.00;99.90;;;;;;5037776;28;20044;-79
2023/01/09 02:21:12;;;;;;;2.33;1.23;;;5.90;99.90;;;;;;5004876;28;20038;-78
2023/01/09 02:23:54;;;;;;;2.03;0.93;;;5.90;99.90;;;;;;5052645;28;20548;-80
2023/01/09 02:26:30;;;;;;;1.77;0.98;;;5.80;99.90;;;;;;5030192;28;20150;-80
2023/01/09 02:29:29;;;;;;;1.58;0.80;;;5.80;99.90;;;;;;5044740;28;20029;-80
2023/01/09 02:32:14;;;;;;;1.88;1.00;;;5.70;99.90;;;;;;5044376;28;20728;-81
2023/01/09 02:34:40;;;;;;;3.85;1.23;;;5.70;99.90;;;;;;5051572;28;20035;-80
2023/01/09 02:37:11;;;;;;;4.07;1.10;;;5.70;99.90;;;;;;5043739;28;20033;-80
2023/01/09 02:39:42;;;;;;;3.40;0.88;;;5.70;99.90;;;;;;5042708;28;20041;-80
2023/01/09 02:42:17;;;;;;;2.17;0.90;;;5.70;99.90;;;;;;5042757;28;20057;-82
2023/01/09 02:44:44;;;;;;;1.55;0.80;;;5.80;99.90;;;;;;5053093;28;20051;-81
2023/01/09 02:47:16;;;;;;;2.65;0.90;;;5.80;99.90;;;;;;5024859;28;20033;-81
2023/01/09 02:49:49;;;;;;;5.03;2.03;;;5.90;99.90;;;;;;5060791;28;20033;-81
2023/01/09 02:52:36;;;;;;;3.42;1.40;;;6.00;99.90;;;;;;5027977;28;20044;-79
2023/01/09 02:55:35;;;;;;;2.17;1.23;;;6.00;99.90;;;;;;5031253;28;20032;-80
2023/01/09 02:58:16;;;;;;;2.80;1.08;;;6.10;99.90;;;;;;5028565;28;20397;-81
2023/01/09 03:01:20;;;;;;;3.60;0.90;;;6.10;99.90;;;;;;5044134;28;20045;-81
2023/01/09 03:04:03;;;;;;;2.92;1.33;;;6.10;99.90;;;;;;5015830;28;20056;-80
2023/01/09 03:06:42;;;;;;;;;;;6.20;99.90;;;;;;5041504;28;20055;-80
2023/01/09 03:09:15;;;;;;;3.72;1.45;;;6.20;99.90;;;;;;5027339;28;20585;-79
2023/01/09 03:11:46;;;;;;;3.58;1.20;;;6.20;99.90;;;;;;5041031;28;20400;-80
2023/01/09 03:14:20;;;;;;;3.63;1.13;;;6.10;99.90;;;;;;5034148;28;20032;-81
2023/01/09 03:16:51;;;;;;;3.17;1.02;;;6.20;99.90;;;;;;5060939;28;20059;-80
2023/01/09 03:19:20;;;;;;;2.03;0.90;;;6.20;99.90;;;;;;5043991;28;20123;-80
2023/01/09 03:21:47;;;;;;;4.75;1.00;;;6.20;99.90;;;;;;5060255;28;20045;-78
2023/01/09 03:24:14;;;;;;;5.32;1.20;;;6.20;99.90;;;;;;5033985;28;20040;-80
2023/01/09 03:26:41;;;;;;;2.83;1.60;;;6.20;99.90;;;;;;5043563;28;20040;-82
2023/01/09 03:29:08;;;;;;;3.92;1.27;;;6.20;99.90;;;;;;5059976;28;20032;-83
2023/01/09 03:31:34;;;;;;;6.13;1.85;;;6.20;99.90;;;;;;5024205;28;20060;-79
2023/01/09 03:34:01;;;;;;;3.33;1.00;;;6.20;99.90;;;;;;5042828;28;20032;-82
2023/01/09 03:36:27;;;;;;;5.43;1.35;;;6.10;99.90;;;;;;5046697;28;20763;-81
2023/01/09 03:38:54;;;;;;;6.75;1.98;;;6.10;99.90;;;;;;5014241;28;20033;-81
2023/01/09 03:41:20;;;;;;;5.30;1.52;;;6.10;99.90;;;;;;5030458;28;20557;-77
2023/01/09 03:43:47;;;;;;;3.53;1.35;;;6.00;99.90;;;;;;5020514;28;20472;-82
2023/01/09 03:46:16;;;;;;;4.72;1.33;;;6.00;99.90;;;;;;5030595;28;20048;-81
2023/01/09 03:48:43;;;;;;;4.40;1.17;;;5.90;99.90;;;;;;5047711;28;20040;-81
2023/01/09 03:51:09;;;;;;;3.50;1.73;;;5.80;99.90;;;;;;5030172;28;20522;-78
2023/01/09 03:53:35;;;;;;;3.95;1.40;;;5.80;99.90;;;;;;5021449;28;20051;-80
2023/01/09 03:56:02;;;;;;;2.05;0.80;;;5.70;99.90;;;;;;5030302;28;20215;-81
2023/01/09 03:58:28;;;;;;;3.53;0.82;;;5.70;99.90;;;;;;5030455;28;20037;-81
2023/01/09 04:01:00;;;;;;;3.58;1.10;;;5.60;99.90;;;;;;5011401;28;20041;-79
2023/01/09 04:03:26;;;;;;;2.78;1.10;;;5.60;99.90;;;;;;5022468;28;20045;-80
2023/01/09 04:05:53;;;;;;;4.45;1.10;;;5.50;99.90;;;;;;5028263;28;20056;-81
2023/01/09 04:08:20;;;;;;;2.83;0.85;;;5.40;99.90;;;;;;5046794;28;20029;-81
2023/01/09 04:10:48;;;;;;;3.08;1.27;;;5.40;99.90;;;;;;5029307;28;20036;-81
2023/01/09 04:13:15;;;;;;;2.55;0.80;;;5.40;99.90;;;;;;5007230;28;20057;-77
2023/01/09 04:15:41;;;;;;;3.30;1.20;;;5.40;99.90;;;;;;5010411;28;20041;-80
2023/01/09 04:18:08;;;;;;;3.50;1.35;;;5.30;99.90;;;;;;5046453;28;20040;-81
2023/01/09 04:20:34;;;;;;;3.92;1.10;;;5.30;99.90;;;;;;5045556;28;20037;-79
2023/01/09 04:23:01;;;;;;;3.45;1.52;;;5.30;99.90;;;;;;5022989;28;20526;-80
2023/01/09 04:25:27;;;;;;;4.13;1.10;;;5.30;99.90;;;;;;5023392;28;20040;-80
2023/01/09 04:27:53;;;;;;;6.13;1.10;;;5.30;99.90;;;;;;5010775;28;20377;-81
2023/01/09 04:30:20;;;;;;;3.22;0.90;;;5.30;99.90;;;;;;5030464;28;20688;-81
2023/01/09 04:32:46;;;;;;;4.13;1.17;;;5.30;99.90;;;;;;5046702;28;20041;-78
2023/01/09 04:35:13;;;;;;;2.97;0.95;;;5.20;99.90;;;;;;5005994;28;20817;-81
2023/01/09 04:37:39;;;;;;;4.50;1.02;;;5.20;99.90;;;;;;5029706;28;20092;-82
2023/01/09 04:40:09;;;;;;;4.88;1.02;;;5.20;99.90;;;;;;5029251;28;20048;-80
2023/01/09 04:42:36;;;;;;;4.00;1.30;;;5.20;99.90;;;;;;5025569;28;20107;-82
2023/01/09 04:45:07;;;;;;;5.22;1.35;;;5.20;99.90;;;;;;5035504;28;20052;-81
2023/01/09 04:47:33;;;;;;;6.78;1.60;;;5.10;99.90;;;;;;5013663;28;20476;-80
2023/01/09 04:50:00;;;;;;;7.63;1.67;;;5.20;99.90;;;;;;5026399;28;20488;-80
2023/01/09 04:52:26;;;;;;;7.15;1.80;;;5.20;99.90;;;;;;5012926;28;20052;-81
2023/01/09 04:54:53;;;;;;;7.18;2.10;;;5.30;99.90;;;;;;5002819;28;20037;-82
2023/01/09 04:57:19;;;;;;;6.75;1.63;;;5.30;99.90;;;;;;5012213;28;20515;-80
2023/01/09 04:59:45;;;;;;;8.02;2.40;;;5.30;99.90;;;;;;5044667;28;20028;-82
2023/01/09 05:02:12;;;;;;;7.13;2.35;;;5.40;99.90;;;;;;5028860;28;20044;-81
2023/01/09 05:04:38;;;;;;;8.13;2.22;;;5.50;99.90;;;;;;5019010;28;20037;-80
2023/01/09 05:07:04;;;;;;;6.70;2.58;;;5.50;99.90;;;;;;5028088;28;20037;-79
2023/01/09 05:09:31;;;;;;;6.38;2.22;;;5.60;99.90;;;;;;5011875;28;20041;-82
2023/01/09 05:11:57;;;;;;;7.80;2.63;;;5.60;99.90;;;;;;5028438;28;20028;-81
2023/01/09 05:14:24;;;;;;;5.65;2.22;;;5.70;99.90;;;;;;5034935;28;20039;-81
2023/01/09 05:16:50;;;;;;;5.57;2.88;;;5.80;99.90;;;;;;5028325;28;20488;-81
2023/01/09 05:19:16;;;;;;;6.38;2.13;;;5.80;99.90;;;;;;5045904;28;20037;-77
2023/01/09 05:21:42;;;;;;;7.45;2.42;;;5.80;99.90;;;;;;5011848;28;20053;-83
2023/01/09 05:24:09;;;;;;;6.97;1.73;;;5.80;99.90;;;;;;5002303;28;20060;-80
2023/01/09 05:26:35;;;;;;;6.72;2.53;;;5.80;99.90;;;;;;5045099;28;20033;-81
2023/01/09 05:29:01;;;;;;;9.98;1.48;;;5.90;99.90;;;;;;5045821;28;20029;-78
2023/01/09 05:31:28;;;;;;;7.70;1.70;;;5.90;99.90;;;;;;5027389;28;20105;-82
2023/01/09 05:33:54;;;;;;;5.32;1.40;;;5.90;99.90;;;;;;5035444;28;20839;-80
2023/01/09 05:36:21;;;;;;;6.40;1.63;;;5.90;99.90;;;;;;5044862;28;20037;-82
2023/01/09 05:38:47;;;;;;;7.07;2.08;;;6.00;99.90;;;;;;5028228;28;20107;-81
2023/01/09 05:41:13;;;;;;;5.35;1.58;;;6.00;99.90;;;;;;5027171;28;20043;-80
2023/01/09 05:43:39;;;;;;;6.60;1.88;;;6.00;99.90;;;;;;4999005;28;20045;-80
2023/01/09 05:46:06;;;;;;;3.08;1.25;;;6.00;99.90;;;;;;5044784;28;20045;-80
2023/01/09 05:48:32;;;;;;;7.43;1.67;;;6.00;99.90;;;;;;5044183;28;20021;-80
2023/01/09 05:50:58;;;;;;;4.13;1.40;;;6.00;99.90;;;;;;5010221;28;20500;-79
2023/01/09 05:53:24;;;;;;;9.20;1.50;;;6.00;99.90;;;;;;5036021;28;20071;-77
2023/01/09 05:55:51;;;;;;;6.30;1.67;;;6.00;99.90;;;;;;5044169;28;20399;-81
2023/01/09 05:58:17;;;;;;;5.47;1.75;;;6.00;99.90;;;;;;5044989;28;20032;-81
2023/01/09 06:00:43;;;;;;;5.75;1.20;;;6.00;99.90;;;;;;5026926;28;20037;-80
2023/01/09 06:03:09;;;;;;;6.03;1.20;;;6.00;99.90;;;;;;5005381;28;20496;-77
2023/01/09 06:05:36;;;;;;;5.50;1.40;;;6.00;99.90;;;;;;5040638;28;20041;-82
2023/01/09 06:08:02;;;;;;;5.97;1.38;;;6.00;99.90;;;;;;5027750;28;20036;-81
2023/01/09 06:10:28;;;;;;;4.68;1.30;;;6.00;99.90;;;;;;5043936;28;20033;-81
2023/01/09 06:12:54;;;;;;;6.00;1.10;;;6.00;99.90;;;;;;5040833;28;20044;-79
2023/01/09 06:15:21;;;;;;;4.60;1.10;;;6.00;99.90;;;;;;5021078;28;20382;-80
2023/01/09 06:17:47;;;;;;;6.00;1.25;;;6.10;99.90;;;;;;5027892;28;20052;-80
2023/01/09 06:20:13;;;;;;;10.48;1.50;;;6.10;99.90;;;;;;5007940;28;20044;-78
2023/01/09 06:22:40;;;;;;;8.57;1.55;;;6.10;99.90;;;;;;5044060;28;20420;-82
2023/01/09 06:25:06;;;;;;;5.63;1.05;;;6.20;99.90;;;;;;5037218;28;20142;-82
2023/01/09 06:27:33;;;;;;;8.52;1.40;;;6.20;99.90;;;;;;5011273;28;20045;-82
2023/01/09 06:29:59;;;;;;;7.10;1.50;;;6.20;99.90;;;;;;5043901;28;20128;-81
2023/01/09 06:32:25;;;;;;;7.88;1.90;;;6.20;99.90;;;;;;5043930;28;20033;-80
2023/01/09 06:34:51;;;;;;;8.05;1.58;;;6.30;99.90;;;;;;5001625;28;20036;-82
2023/01/09 06:37:18;;;;;;;5.28;1.23;;;6.30;99.90;;;;;;5044366;28;20037;-81
2023/01/09 06:39:44;;;;;;;5.45;1.23;;;6.30;99.90;;;;;;5027003;28;20045;-82
2023/01/09 06:42:10;;;;;;;8.75;3.30;;;6.30;99.90;;;;;;5023767;28;20025;-80
2023/01/09 06:44:36;;;;;;;5.80;2.10;;;6.40;99.90;;;;;;5036038;28;20041;-80
2023/01/09 06:47:03;;;;;;;7.90;2.10;;;6.40;99.90;;;;;;5060600;28;20048;-81
2023/01/09 06:49:29;;;;;;;8.02;2.08;;;6.40;99.90;;;;;;5038765;28;20056;-82
2023/01/09 06:51:56;;;;;;;5.30;1.25;;;6.40;99.90;;;;;;5019834;28;20033;-82
2023/01/09 06:54:22;;;;;;;8.45;1.10;;;6.40;99.90;;;;;;5037323;28;20403;-81
2023/01/09 06:56:48;;;;;;;8.63;1.23;;;6.50;99.90;;;;;;5041630;28;20040;-83
2023/01/09 06:59:14;;;;;;;6.60;1.25;;;6.50;99.90;;;;;;5028152;28;20048;-81
2023/01/09 07:01:41;;;;;;;5.05;1.30;;;6.50;99.90;;;;;;5027143;28;20063;-82
2023/01/09 07:04:11;;;;;;;12.20;2.15;;;6.50;99.90;;;;;;5035251;28;20582;-82
2023/01/09 07:06:37;;;;;;;9.60;2.33;;;6.50;99.90;;;;;;5026604;28;20040;-82
2023/01/09 07:09:04;;;;;;;8.43;1.23;;;6.50;99.90;;;;;;5028923;28;20047;-85
2023/01/09 07:11:31;;;;;;;15.25;4.05;;;6.60;99.90;;;;;;5045640;28;20056;-85
2023/01/09 07:13:58;;;;;;;12.48;2.38;;;6.60;99.90;;;;;;5038455;28;20033;-86
2023/01/09 07:16:24;;;;;;;8.05;2.58;;;6.60;99.90;;;;;;5047085;28;20029;-86
2023/01/09 07:18:51;;;;;;;6.85;1.67;;;6.60;99.90;;;;;;5030830;28;20496;-82
2023/01/09 07:21:17;;;;;;;11.98;1.48;;;6.70;99.90;;;;;;5031027;28;20029;-81
2023/01/09 07:23:43;;;;;;;7.03;1.35;;;6.70;99.90;;;;;;5021562;28;20056;-82
2023/01/09 07:26:10;;;;;;;12.55;2.00;;;6.70;99.90;;;;;;5047248;28;20039;-80
2023/01/09 07:28:36;;;;;;;9.27;1.00;;;6.70;99.90;;;;;;5045439;28;20044;-83
2023/01/09 07:31:03;;;;;;;7.90;1.00;;;6.70;99.90;;;;;;5046569;28;20511;-82
2023/01/09 07:33:29;;;;;;;9.20;1.33;;;6.70;99.90;;;;;;5038672;28;20036;-77
2023/01/09 07:35:56;;;;;;;7.47;1.10;;;6.70;99.90;;;;;;5047412;28;20029;-79
2023/01/09 07:38:22;;;;;;;9.15;1.25;;;6.70;99.90;;;;;;5047273;28;20057;-82
2023/01/09 07:40:48;;;;;;;5.95;0.88;;;6.70;99.90;;;;;;5046255;28;20029;-80
2023/01/09 07:43:14;;;;;;;5.25;0.80;;;6.70;99.90;;;;;;5039760;28;20041;-80
2023/01/09 07:45:41;;;;;;;9.25;3.25;;;6.70;99.90;;;;;;5026881;28;20044;-81
2023/01/09 07:48:07;;;;;;;12.30;4.95;;;6.70;99.90;;;;;;5029621;28;20487;-80
2023/01/09 07:50:33;;;;;;;8.90;1.77;;;6.70;99.90;;;;;;5047678;28;20052;-80
2023/01/09 07:53:00;;;;;;;5.57;1.52;;;6.80;99.90;;;;;;5042742;28;20041;-81
2023/01/09 07:55:26;;;;;;;9.27;1.42;;;6.70;99.90;;;;;;5041816;28;20448;-81
2023/01/09 07:57:52;;;;;;;11.48;1.63;;;6.80;99.90;;;;;;5013464;28;20033;-81
2023/01/09 08:00:19;;;;;;;13.35;1.50;;;6.80;99.90;;;;;;5048007;28;20044;-82
2023/01/09 08:02:53;;;;;;;7.32;1.15;;;6.70;99.90;;;;;;5045574;28;20025;-78
2023/01/09 08:05:20;;;;;;;9.40;1.42;;;6.70;99.90;;;;;;5007284;28;20393;-82
2023/01/09 08:07:49;;;;;;;4.75;1.10;;;6.70;99.90;;;;;;5046331;28;20037;-79
2023/01/09 08:10:18;;;;;;;8.27;1.55;;;6.70;99.90;;;;;;5043829;28;20048;-79
2023/01/09 08:12:46;;;;;;;11.77;1.35;;;6.70;99.90;;;;;;5025671;28;20048;-79
2023/01/09 08:15:12;;;;;;;5.78;1.00;;;6.70;99.90;;;;;;5020999;28;20063;-80
2023/01/09 08:17:41;;;;;;;4.85;1.33;;;6.70;99.90;;;;;;5026381;28;20522;-80
2023/01/09 08:20:11;;;;;;;13.38;2.60;;;6.70;99.90;;;;;;5027155;28;20033;-80
2023/01/09 08:22:41;;;;;;;10.63;2.15;;;6.70;99.90;;;;;;5010730;28;20415;-79
2023/01/09 08:25:08;;;;;;;5.88;1.98;;;6.70;99.90;;;;;;5037041;28;20047;-78
2023/01/09 08:27:35;;;;;;;9.70;2.53;;;6.70;99.90;;;;;;5045758;28;20048;-78
2023/01/09 08:30:01;;;;;;;7.07;2.58;;;6.70;99.90;;;;;;5012850;28;20473;-78
2023/01/09 08:32:27;;;;;;;7.20;1.80;;;6.70;99.90;;;;;;5029947;28;20048;-79
2023/01/09 08:34:54;;;;;;;8.27;1.85;;;6.70;99.90;;;;;;5039051;28;20041;-78
2023/01/09 08:37:20;;;;;;;4.60;2.15;;;6.70;99.90;;;;;;5045685;28;20348;-79
2023/01/09 08:39:46;;;;;;;9.65;3.35;;;6.70;99.90;;;;;;5045577;28;20474;-79
2023/01/09 08:47:43;;;;;;;5.28;2.95;;;6.60;99.90;;;;;;5045703;28;20059;-79
2023/01/09 08:50:09;;;;;;;9.70;3.55;;;6.60;99.90;;;;;;5028226;28;20029;-79
2023/01/09 08:52:36;;;;;;;6.50;3.17;;;6.60;99.90;;;;;;5046325;28;20041;-79
2023/01/09 08:55:02;;;;;;;9.15;4.15;;;6.70;99.90;;;;;;5003676;28;20420;-80
2023/01/09 08:57:28;;;;;;;8.18;4.85;;;6.60;99.90;;;;;;5047101;28;20045;-80
2023/01/09 08:59:55;;;;;;;5.35;2.35;;;6.60;99.90;;;;;;5045006;28;20055;-80
2023/01/09 09:02:21;;;;;;;6.65;3.58;;;6.70;99.90;;;;;;5047307;28;20060;-80
2023/01/09 09:04:51;;;;;;;7.18;2.92;;;6.70;99.90;;;;;;5039300;28;20037;-80
2023/01/09 09:07:25;;;;;;;6.30;3.03;;;6.70;99.90;;;;;;5045487;28;20043;-78
2023/01/09 09:09:54;;;;;;;11.68;3.92;;;6.70;99.90;;;;;;5013379;28;20044;-80
2023/01/09 09:12:21;;;;;;;10.70;3.50;;;6.80;99.90;;;;;;5049013;28;20025;-80
2023/01/09 09:17:32;;;;;;;5.93;4.00;;;6.80;99.90;;;;;;5047746;28;20025;-80
2023/01/09 09:19:59;;;;;;;6.97;4.68;;;6.80;99.90;;;;;;5045691;28;20520;-80
2023/01/09 09:22:25;;;;;;;7.57;4.25;;;6.80;99.90;;;;;;5028835;28;20048;-82
2023/01/09 09:24:52;;;;;;;8.32;4.30;;;6.80;99.90;;;;;;5020890;28;20392;-81
2023/01/09 09:27:18;;;;;;;11.52;5.70;;;6.80;99.90;;;;;;5046955;28;20041;-78
2023/01/09 09:29:44;;;;;;;8.90;5.38;;;6.90;99.90;;;;;;5028580;28;20052;-79
2023/01/09 09:32:11;;;;;;;7.57;5.03;;;6.90;99.90;;;;;;5026844;28;20037;-81
2023/01/09 09:34:37;;;;;;;8.02;5.38;;;6.90;99.90;;;;;;5020523;28;20558;-80
2023/01/09 09:37:03;;;;;;;6.65;4.85;;;7.00;99.90;;;;;;5045593;28;20383;-80
2023/01/09 09:39:30;;;;;;;8.23;4.50;;;7.00;99.90;;;;;;5045980;28;20543;-79
2023/01/09 09:45:21;;;;;;;8.20;4.85;;;7.10;99.90;;;;;;5037934;28;20049;-81
2023/01/09 09:47:50;;;;;;;11.43;5.13;;;7.20;99.90;;;;;;5045698;28;20045;-82
2023/01/09 09:50:22;;;;;;;9.13;4.13;;;7.20;99.90;;;;;;5043344;28;20043;-80
2023/01/09 09:52:51;;;;;;;11.65;4.40;;;7.20;99.90;;;;;;5025053;28;20506;-80
2023/01/09 09:55:23;;;;;;;8.52;4.53;;;7.20;99.90;;;;;;5021982;28;20044;-81
2023/01/09 09:57:51;;;;;;;9.52;4.57;;;7.20;99.90;;;;;;5027854;28;20412;-80
2023/01/09 10:00:20;;;;;;;11.77;4.05;;;7.20;99.90;;;;;;5029115;28;20037;-85
2023/01/09 10:02:55;;;;;;;6.93;3.75;;;7.20;99.90;;;;;;5042455;28;20040;-83
2023/01/09 10:05:33;;;;;;;11.07;3.83;;;7.20;99.90;;;;;;5038311;28;20055;-84
2023/01/09 10:08:14;;;;;;;10.50;4.57;;;7.20;99.90;;;;;;5010430;28;20064;-83
2023/01/09 10:10:52;;;;;;;12.02;4.10;;;7.20;99.90;;;;;;5026434;28;20399;-85
2023/01/09 10:16:27;;;;;;;10.95;4.57;;;7.40;99.90;;;;;;5026392;28;20048;-80
2023/01/09 10:19:08;;;;;;;12.35;4.75;;;7.50;99.90;;;;;;5026127;28;20037;-82
2023/01/09 10:21:35;;;;;;;8.65;3.92;;;7.50;99.90;;;;;;5043756;28;20044;-81
2023/01/09 10:24:10;;;;;;;10.15;5.15;;;7.50;99.90;;;;;;5019004;28;20475;-83
2023/01/09 10:26:48;;;;;;;8.38;4.38;;;7.50;99.90;;;;;;5011208;28;20049;-81
2023/01/09 10:29:28;;;;;;;11.35;4.93;;;7.70;99.90;;;;;;5024882;28;20040;-85
2023/01/09 10:32:10;;;;;;;11.88;6.80;;;7.80;99.90;;;;;;5042886;28;20033;-80
2023/01/09 10:34:43;;;;;;;13.02;7.38;;;7.90;99.90;;;;;;5034781;28;20497;-80
2023/01/09 10:37:18;;;;;;;12.00;6.80;;;7.90;99.90;;;;;;5025615;28;20052;-82
2023/01/09 10:39:48;;;;;;;13.60;7.35;;;8.00;99.90;;;;;;5044491;28;21069;-80
2023/01/09 10:42:17;;;;;;;11.52;7.10;;;8.10;99.90;;;;;;5040060;28;20033;-81
2023/01/09 10:44:58;;;;;;;8.23;5.82;;;8.10;99.90;;;;;;5035132;28;20036;-83
2023/01/09 10:47:36;;;;;;;9.07;4.90;;;8.20;99.90;;;;;;5046653;28;20552;-79
2023/01/09 10:50:22;;;;;;;6.53;4.07;;;8.20;99.90;;;;;;5045367;28;20045;-81
2023/01/09 10:52:51;;;;;;;11.93;4.53;;;8.20;99.90;;;;;;5060163;28;20044;-78
2023/01/09 10:55:43;;;;;;;7.97;3.65;;;8.10;99.90;;;;;;5040872;28;20040;-80
2023/01/09 10:58:12;;;;;;;6.82;4.30;;;8.00;99.90;;;;;;5055435;28;20040;-82
2023/01/09 11:00:40;;;;;;;9.02;3.67;;;7.90;99.90;;;;;;5029701;28;20036;-80
2023/01/09 11:03:15;;;;;;;5.03;3.30;;;7.90;99.90;;;;;;5040496;28;20037;-79
2023/01/09 11:05:42;;;;;;;6.97;4.47;;;7.80;99.90;;;;;;5027359;28;20052;-80
2023/01/09 11:08:08;;;;;;;9.32;3.47;;;7.80;99.90;;;;;;5046832;28;20037;-81
2023/01/09 11:10:48;;;;;;;8.80;3.97;;;7.70;99.90;;;;;;5029903;28;20040;-82
2023/01/09 11:13:30;;;;;;;6.32;3.75;;;7.80;99.90;;;;;;5024803;28;20041;-79
2023/01/09 11:16:16;;;;;;;7.40;4.40;;;7.80;99.90;;;;;;5046828;28;20032;-84
2023/01/09 11:18:53;;;;;;;8.82;5.05;;;8.00;99.90;;;;;;5030884;28;20399;-83
2023/01/09 11:21:36;;;;;;;9.95;5.10;;;8.10;99.90;;;;;;5039704;28;20036;-79
2023/01/09 11:24:19;;;;;;;11.25;4.30;;;8.20;99.90;;;;;;5038711;28;20044;-79
2023/01/09 11:26:46;;;;;;;;;;;8.40;99.90;;;;;;5030806;28;20499;-80
2023/01/09 11:29:15;;;;;;;9.48;3.88;;;8.40;99.90;;;;;;5046281;28;19912;-80
2023/01/09 11:31:58;;;;;;;7.13;3.47;;;8.40;99.90;;;;;;5046270;28;20032;-81
2023/01/09 11:34:28;;;;;;;5.38;2.85;;;8.50;99.90;;;;;;5022302;28;20045;-82
2023/01/09 11:37:03;;;;;;;8.43;2.72;;;8.50;99.90;;;;;;5028403;28;20029;-80
2023/01/09 11:39:31;;;;;;;4.93;2.65;;;8.50;99.90;;;;;;5048749;28;20459;-81
2023/01/09 11:42:04;;;;;;;6.97;2.85;;;8.50;99.90;;;;;;5045432;28;20037;-82
2023/01/09 11:44:31;;;;;;;8.27;2.83;;;8.40;99.90;;;;;;5037343;28;20041;-80
2023/01/09 11:46:58;;;;;;;11.68;3.08;;;8.30;99.90;;;;;;5029326;28;20045;-82
2023/01/09 11:49:29;;;;;;;5.57;2.38;;;8.30;99.90;;;;;;5045631;28;20041;-79
2023/01/09 11:52:23;;;;;;;6.50;2.38;;;8.30;99.90;;;;;;5027280;28;20498;-81
2023/01/09 11:55:05;;;;;;;4.05;2.33;;;8.20;99.90;;;;;;5015501;28;20072;-80
2023/01/09 11:57:32;;;;;;;5.55;2.90;;;8.20;99.90;;;;;;5031776;28;20051;-80
2023/01/09 12:00:02;;;;;;;5.40;2.30;;;8.10;99.90;;;;;;5007510;28;20030;-81
2023/01/09 12:02:55;;;;;;;7.90;2.40;;;8.10;99.90;;;;;;5045988;28;20063;-81
2023/01/09 12:06:06;;;;;;;6.80;2.13;;;8.20;99.90;;;;;;5039654;28;20045;-82
2023/01/09 12:08:55;;;;;;;10.45;3.25;;;8.40;99.90;;;;;;5043293;28;20048;-77
2023/01/09 12:11:26;;;;;;;8.07;3.22;;;8.50;99.90;;;;;;5045916;28;20032;-81
2023/01/09 12:14:01;;;;;;;11.15;2.90;;;8.60;99.90;;;;;;5037582;28;20316;-80
2023/01/09 12:16:43;;;;;;;5.82;3.03;;;8.60;99.90;;;;;;5048456;28;20037;-82
2023/01/09 12:19:12;;;;;;;7.32;2.42;;;8.60;99.90;;;;;;5047919;28;20040;-80
2023/01/09 12:21:48;;;;;;;9.55;2.35;;;8.60;99.90;;;;;;5030268;28;20040;-80
2023/01/09 12:24:25;;;;;;;8.93;2.65;;;8.70;99.90;;;;;;5039416;28;20410;-80
2023/01/09 12:27:18;;;;;;;7.90;2.30;;;8.70;99.90;;;;;;5045044;28;20049;-80
2023/01/09 12:30:28;;;;;;;6.22;2.13;;;8.70;99.90;;;;;;5037375;28;20048;-80
2023/01/09 12:33:15;;;;;;;8.48;2.40;;;8.70;99.90;;;;;;5045337;28;20040;-81
2023/01/09 12:35:47;;;;;;;13.30;2.35;;;8.60;99.90;;;;;;5023711;28;20458;-79
2023/01/09 12:38:30;;;;;;;8.10;2.38;;;8.60;99.90;;;;;;5045100;28;20041;-80
2023/01/09 12:40:59;;;;;;;8.50;2.20;;;8.60;99.90;;;;;;5062696;28;20037;-80
2023/01/09 12:44:01;;;;;;;11.85;2.47;;;8.60;99.90;;;;;;5040702;28;21050;-81
2023/01/09 12:47:14;;;;;;;11.73;2.88;;;8.60;99.90;;;;;;5044236;28;20064;-80
2023/01/09 12:49:53;;;;;;;14.15;3.00;;;8.60;99.90;;;;;;5042965;28;20040;-81
2023/01/09 12:52:30;;;;;;;11.63;2.08;;;8.60;99.90;;;;;;5047223;28;20504;-78
2023/01/09 12:55:07;;;;;;;9.32;1.80;;;8.70;99.90;;;;;;5038118;28;20095;-79
2023/01/09 12:57:39;;;;;;;14.32;2.33;;;8.80;99.90;;;;;;5029312;28;20496;-81
2023/01/09 13:00:17;;;;;;;12.05;2.03;;;8.80;99.90;;;;;;5042691;28;20048;-81
2023/01/09 13:02:55;;;;;;;9.30;1.90;;;8.80;99.90;;;;;;5027962;28;20052;-79
2023/01/09 13:05:27;;;;;;;6.60;2.05;;;8.80;99.90;;;;;;5007530;28;20049;-81
2023/01/09 13:08:05;;;;;;;8.38;1.75;;;8.70;99.90;;;;;;5044933;28;20044;-80
2023/01/09 13:10:41;;;;;;;11.93;2.80;;;8.70;99.90;;;;;;5028644;28;20039;-82
2023/01/09 13:13:29;;;;;;;12.65;2.15;;;8.60;99.90;;;;;;5023754;28;20041;-77
2023/01/09 13:15:58;;;;;;;7.85;2.35;;;8.60;99.90;;;;;;5027227;28;20498;-79
2023/01/09 13:18:45;;;;;;;12.07;2.03;;;8.60;99.90;;;;;;5045132;28;20040;-81
2023/01/09 13:21:13;;;;;;;7.88;2.42;;;8.60;99.90;;;;;;5044311;28;20056;-78
2023/01/09 13:24:18;;;;;;;19.98;3.13;;;8.70;99.90;;;;;;5033712;28;20053;-79
2023/01/09 13:27:07;;;;;;;11.80;2.28;;;8.80;99.90;;;;;;5026103;28;20053;-79
2023/01/09 13:29:37;;;;;;;14.20;2.97;;;8.90;99.90;;;;;;5028601;28;20369;-81
2023/01/09 13:32:24;;;;;;;11.82;3.45;;;8.90;99.90;;;;;;5028217;28;20037;-80